Time;durP1;ratioP1;P1;durP2;ratioP2;P2;SDS_P1;SDS_P2;PMS_P1;PMS_P2;Temp;Humidity;BMP_temperature;BMP_pressure;BME280_temperature;BME280_humidity;BME280_pressure;Samples;Min_cycle;Max_cycle;Signal;HPM_P1;HPM_P2
2021/12/01 00:02:53;;;;;;;;;;;;;;;;;;;;;
2021/12/01 00:08:37;;;;;;;73.75;24.38;;;;;;;1.48;100.00;99126.28;10176438;29;20048;-95
2021/12/01 00:14:04;;;;;;;83.20;23.63;;;;;;;2.10;100.00;99176.41;10202991;29;20444;-95
2021/12/01 00:19:34;;;;;;;82.18;27.10;;;;;;;2.10;100.00;99208.97;10206933;28;20043;-94
2021/12/01 00:25:25;;;;;;;96.15;27.95;;;;;;;1.88;100.00;99141.78;10268208;28;20030;-94
2021/12/01 00:30:42;;;;;;;95.80;28.33;;;;;;;2.08;100.00;99097.91;10263003;28;20035;-94
2021/12/01 00:35:56;;;;;;;100.93;30.90;;;;;;;1.93;100.00;98927.47;10253972;28;20049;-93
2021/12/01 00:41:02;;;;;;;;;;;;;;;6.98;100.00;99684.81;10266710;28;20504;-93
2021/12/01 00:46:45;;;;;;;91.70;32.75;;;;;;;1.29;100.00;98943.94;10259236;28;19954;-93
2021/12/01 00:52:09;;;;;;;96.50;32.80;;;;;;;3.67;100.00;99130.38;10251283;28;20077;-93
2021/12/01 00:57:24;;;;;;;94.18;34.03;;;;;;;2.55;100.00;99048.78;10266268;28;20129;-90
2021/12/01 01:02:46;;;;;;;;;;;;;;;;;;;;;
2021/12/01 01:08:15;;;;;;;;;;;;;;;;;;;;;
2021/12/01 01:20:00;;;;;;;78.82;33.75;;;;;;;4.15;100.00;99229.56;10097778;29;20064;-91
2021/12/01 01:25:31;;;;;;;81.25;35.05;;;;;;;2.53;100.00;98833.63;10060186;29;20092;-92
2021/12/01 01:31:10;;;;;;;73.38;32.25;;;;;;;2.74;100.00;98817.56;10096694;28;20029;-91
2021/12/01 01:36:55;;;;;;;65.82;32.20;;;;;;;4.04;100.00;98988.97;10255338;28;20039;-92
2021/12/01 01:49:30;;;;;;;;;;;;;;;;;;;;;
2021/12/01 02:01:10;;;;;;;47.47;25.08;;;;;;;3.06;100.00;98766.03;10298625;28;20038;-94
2021/12/01 02:06:21;;;;;;;;;;;;;;;;;;;;;
2021/12/01 02:11:53;;;;;;;28.30;16.63;;;;;;;1.61;100.00;98445.25;10263691;28;20081;-92
2021/12/01 02:17:26;;;;;;;;;;;;;;;;;;;;;
2021/12/01 02:29:21;;;;;;;30.58;15.60;;;;;;;1.69;100.00;98552.44;10296117;28;20035;-94
2021/12/01 02:34:51;;;;;;;34.30;16.20;;;;;;;2.33;100.00;98540.09;10245049;28;20058;-91
2021/12/01 02:39:56;;;;;;;30.02;17.65;;;;;;;2.83;100.00;98587.75;10260437;28;20388;-91
2021/12/01 02:44:59;;;;;;;29.80;16.30;;;;;;;5.50;100.00;99129.72;10277139;28;20054;-90
2021/12/01 02:50:10;;;;;;;28.58;14.90;;;;;;;5.72;100.00;99148.66;10245466;28;20038;-91
2021/12/01 02:55:40;;;;;;;31.20;16.60;;;;;;;6.68;100.00;99165.72;10261093;28;20041;-91
2021/12/01 03:01:02;;;;;;;27.50;13.13;;;;;;;4.38;100.00;99009.69;10264968;28;20051;-89
2021/12/01 03:06:05;;;;;;;25.75;12.35;;;;;;;1.94;100.00;98532.09;10244390;28;20058;-90
2021/12/01 03:11:06;;;;;;;17.70;9.05;;;;;;;4.14;100.00;98846.63;10275677;28;20400;-91
2021/12/01 03:16:07;;;;;;;12.95;7.28;;;;;;;6.67;100.00;99164.88;10275831;28;20042;-93
2021/12/01 03:21:15;;;;;;;11.40;6.28;;;;;;;4.28;100.00;98699.06;10247130;28;20097;-92
2021/12/01 03:26:16;;;;;;;9.60;6.72;;;;;;;8.17;100.00;99406.81;10292186;28;20546;-91
2021/12/01 03:31:16;;;;;;;14.23;7.43;;;;;;;6.19;100.00;98981.13;10260424;28;20023;-92
2021/12/01 03:36:25;;;;;;;9.15;6.10;;;;;;;2.63;100.00;98515.91;10260523;28;20035;-90
2021/12/01 03:41:26;;;;;;;9.40;4.88;;;;;;;4.56;100.00;98847.69;10276505;28;20033;-89
2021/12/01 03:46:26;;;;;;;6.47;3.88;;;;;;;2.56;100.00;98359.66;10293488;28;20035;-89
2021/12/01 03:51:29;;;;;;;5.20;3.10;;;;;;;6.92;100.00;99114.03;10244910;28;20027;-89
2021/12/01 03:56:34;;;;;;;5.10;3.40;;;;;;;4.36;100.00;98635.91;10244836;28;20043;-89
2021/12/01 04:01:34;;;;;;;7.15;3.15;;;;;;;3.50;100.00;98637.19;10276633;28;20070;-89
2021/12/01 04:06:38;;;;;;;4.65;3.05;;;;;;;2.75;100.00;98351.84;10253924;28;20039;-88
2021/12/01 04:11:38;;;;;;;6.38;3.22;;;;;;;3.58;100.00;98582.28;10276234;28;20047;-89
2021/12/01 04:16:39;;;;;;;5.63;2.40;;;;;;;4.03;100.00;98689.72;10260411;28;20043;-89
2021/12/01 04:21:40;;;;;;;10.60;3.83;;;;;;;3.79;100.00;98377.16;10260080;28;20037;-92
2021/12/01 04:26:40;;;;;;;12.15;4.50;;;;;;;3.48;100.00;98478.84;10263020;28;20467;-92
2021/12/01 04:31:43;;;;;;;9.88;3.65;;;;;;;8.11;100.00;99038.69;10266373;28;20487;-92
2021/12/01 04:36:48;;;;;;;12.88;4.05;;;;;;;4.36;100.00;98652.25;10266715;28;20031;-91
2021/12/01 04:41:55;;;;;;;6.00;3.67;;;;;;;3.05;100.00;98438.16;10266719;28;20512;-91
2021/12/01 04:46:56;;;;;;;6.30;4.22;;;;;;;3.35;100.00;98437.47;10267483;28;20110;-93
2021/12/01 04:52:15;;;;;;;7.13;3.53;;;;;;;3.95;100.00;98532.31;10271436;28;20039;-93
2021/12/01 04:57:23;;;;;;;5.72;3.30;;;;;;;2.04;100.00;98043.72;10267239;28;20391;-93
2021/12/01 05:02:34;;;;;;;5.07;3.30;;;;;;;1.95;100.00;98159.28;10268667;28;20030;-92
2021/12/01 05:07:37;;;;;;;6.47;3.17;;;;;;;6.37;100.00;98814.97;10250961;28;20039;-93
2021/12/01 05:12:55;;;;;;;6.03;3.72;;;;;;;7.30;100.00;98963.19;10249493;28;20466;-94
2021/12/01 05:17:58;;;;;;;4.88;3.30;;;;;;;4.50;100.00;98484.44;10249662;28;20093;-90
2021/12/01 05:23:15;;;;;;;6.55;3.90;;;;;;;6.72;100.00;98832.34;10266264;28;20037;-93
2021/12/01 05:28:19;;;;;;;6.40;4.32;;;;;;;7.86;100.00;99013.06;10281271;28;20039;-91
2021/12/01 05:33:19;;;;;;;5.50;3.50;;;;;;;5.98;100.00;98800.00;10265580;28;20038;-93
2021/12/01 05:38:20;;;;;;;4.45;3.30;;;;;;;1.68;100.00;98108.72;10247439;28;20046;-90
2021/12/01 05:43:31;;;;;;;4.03;2.58;;;;;;;4.86;100.00;98443.53;10263898;28;20046;-91
2021/12/01 05:48:31;;;;;;;4.18;2.85;;;;;;;2.14;100.00;98053.78;10265082;28;20147;-91
2021/12/01 05:53:34;;;;;;;4.38;2.53;;;;;;;4.49;100.00;98431.06;10263598;28;20046;-90
2021/12/01 05:58:35;;;;;;;4.72;3.20;;;;;;;3.65;100.00;98430.47;10264163;28;20388;-91
2021/12/01 06:03:40;;;;;;;4.97;3.25;;;;;;;3.57;100.00;98233.19;10263615;28;20031;-91
2021/12/01 06:08:42;;;;;;;7.72;3.75;;;;;;;4.42;100.00;98356.94;10263029;28;20400;-92
2021/12/01 06:13:43;;;;;;;6.15;3.10;;;;;;;3.41;100.00;98147.25;10279375;28;20059;-92
2021/12/01 06:18:44;;;;;;;5.57;3.45;;;;;;;4.49;100.00;98305.72;10246686;28;20047;-92
2021/12/01 06:23:44;;;;;;;5.15;3.22;;;;;;;3.52;100.00;98251.44;10246980;28;20547;-89
2021/12/01 06:29:01;;;;;;;4.70;3.25;;;;;;;1.31;100.00;97898.19;10246278;28;20488;-96
2021/12/01 06:34:13;;;;;;;7.22;3.17;;;;;;;2.04;100.00;97996.78;10248843;28;20050;-93
2021/12/01 06:39:16;;;;;;;4.10;2.70;;;;;;;3.41;100.00;98262.34;10277761;28;20493;-95
2021/12/01 06:44:24;;;;;;;2.88;2.05;;;;;;;6.31;100.00;98592.00;10250202;28;20027;-95
2021/12/01 06:49:45;;;;;;;3.22;2.10;;;;;;;2.24;100.00;98102.66;10264496;28;20038;-95
2021/12/01 06:54:45;;;;;;;4.45;2.65;;;;;;;5.30;100.00;98540.25;10241470;28;20050;-94
2021/12/01 06:59:49;;;;;;;3.22;2.25;;;;;;;3.80;100.00;98259.06;10277355;28;20035;-92
2021/12/01 07:04:50;;;;;;;6.20;2.20;;;;;;;5.58;100.00;98527.84;10277818;28;20043;-93
2021/12/01 07:09:51;;;;;;;3.50;2.53;;;;;;;4.73;100.00;98335.06;10244886;28;20058;-92
2021/12/01 07:14:52;;;;;;;3.45;2.58;;;;;;;2.31;100.00;97980.22;10261350;28;20063;-92
2021/12/01 07:19:52;;;;;;;3.35;2.30;;;;;;;4.09;100.00;98288.38;10275676;28;20546;-90
2021/12/01 07:24:53;;;;;;;4.20;2.67;;;;;;;4.25;100.00;98188.41;10276618;28;20038;-91
2021/12/01 07:29:53;;;;;;;3.58;2.83;;;;;;;3.78;100.00;98114.28;10245354;28;20058;-94
2021/12/01 07:34:56;;;;;;;4.30;2.40;;;;;;;2.38;100.00;97956.34;10278413;28;20066;-95
2021/12/01 07:40:04;;;;;;;3.67;2.45;;;;;;;7.25;100.00;98879.19;10292016;28;20042;-92
2021/12/01 07:45:05;;;;;;;2.85;2.10;;;;;;;2.55;100.00;97893.59;10276600;28;20062;-92
2021/12/01 07:50:06;;;;;;;3.70;2.75;;;;;;;4.60;100.00;98176.50;10250168;28;20121;-91
2021/12/01 07:55:10;;;;;;;3.70;2.28;;;;;;;3.21;100.00;98164.44;10248548;28;20093;-92
2021/12/01 08:00:11;;;;;;;3.15;2.30;;;;;;;3.48;100.00;98005.56;10262774;28;20054;-94
2021/12/01 08:05:16;;;;;;;4.53;2.60;;;;;;;7.26;100.00;98810.50;10286443;28;20038;-96
2021/12/01 08:10:27;;;;;;;3.80;3.20;;;;;;;4.20;100.00;98385.31;10283404;28;20054;-95
2021/12/01 08:15:47;;;;;;;7.57;3.13;;;;;;;2.13;100.00;97932.72;10271434;28;20054;-93
2021/12/01 08:20:58;;;;;;;3.35;2.30;;;;;;;3.61;100.00;98034.88;10256060;28;20033;-95
2021/12/01 08:38:44;;;;;;;6.10;4.00;;;;;;;0.48;100.00;97484.00;10305628;23;20392;-95
2021/12/01 08:44:55;;;;;;;6.13;3.67;;;;;;;0.03;100.00;97475.59;10219539;29;20130;-96
2021/12/01 08:50:28;;;;;;;;;;;;;;;;;;;;;
2021/12/01 08:55:44;;;;;;;;;;;;;;;;;;;;;
2021/12/01 09:01:37;;;;;;;8.27;3.77;;;;;;;2.53;100.00;97822.47;10162218;29;20059;-95
2021/12/01 09:06:46;;;;;;;4.85;3.15;;;;;;;2.61;100.00;97798.25;10208495;29;20050;-92
2021/12/01 09:11:51;;;;;;;8.50;3.17;;;;;;;2.69;100.00;97832.19;10209897;28;20031;-91
2021/12/01 09:16:53;;;;;;;7.43;2.47;;;;;;;1.77;100.00;97504.16;10209386;29;20039;-91
2021/12/01 09:21:56;;;;;;;3.17;1.27;;;;;;;4.97;100.00;97997.97;10209796;29;20050;-90
2021/12/01 09:26:56;;;;;;;6.50;1.65;;;;;;;2.79;100.00;97771.53;10224838;29;20464;-91
2021/12/01 09:31:58;;;;;;;5.85;1.48;;;;;;;3.43;100.00;97743.41;10223722;29;20035;-88
2021/12/01 09:36:58;;;;;;;7.70;1.85;;;;;;;6.67;100.00;98387.50;10207720;29;20563;-88
2021/12/01 09:42:00;;;;;;;6.75;1.38;;;;;;;1.91;100.00;97610.16;10222876;29;20138;-92
2021/12/01 09:47:35;;;;;;;10.73;2.15;;;;;;;7.61;100.00;98395.13;10207847;29;20067;-89
2021/12/01 09:53:21;;;;;;;9.57;1.50;;;;;;;0.50;100.00;97515.13;10239118;29;20415;-93
2021/12/01 09:58:24;;;;;;;10.38;1.55;;;;;;;2.47;100.00;97840.66;10232963;29;20047;-94
2021/12/01 10:03:24;;;;;;;11.07;2.97;;;;;;;3.36;100.00;97933.25;10223423;29;20503;-93
2021/12/01 10:08:30;;;;;;;4.45;1.05;;;;;;;1.97;100.00;97544.75;10222781;29;20031;-92
2021/12/01 10:13:32;;;;;;;5.57;1.70;;;;;;;3.43;100.00;97819.56;10206900;29;20042;-91
2021/12/01 10:18:43;;;;;;;7.18;1.92;;;;;;;3.32;100.00;97809.81;10222205;29;20291;-91
2021/12/01 10:23:52;;;;;;;6.47;1.15;;;;;;;4.77;100.00;98052.66;10205852;28;20052;-89
2021/12/01 10:28:58;;;;;;;9.15;1.30;;;;;;;6.06;100.00;98247.69;10221837;29;20094;-90
2021/12/01 10:34:23;;;;;;;7.80;1.27;;;;;;;7.44;100.00;98338.13;10205875;29;20043;-91
2021/12/01 10:39:24;;;;;;;10.63;1.40;;;;;;;3.73;100.00;97797.84;10220890;28;20086;-90
2021/12/01 10:44:24;;;;;;;9.20;1.17;;;;;;;3.15;100.00;97692.50;10243433;29;20062;-90
2021/12/01 10:49:33;;;;;;;13.60;1.55;;;;;;;5.94;100.00;98090.75;10210972;29;20066;-89
2021/12/01 10:54:34;;;;;;;12.38;1.65;;;;;;;6.53;100.00;98215.19;10223250;29;20488;-90
2021/12/01 10:59:46;;;;;;;11.13;1.77;;;;;;;2.40;100.00;97555.06;10238272;29;20130;-91
2021/12/01 11:04:48;;;;;;;13.43;1.83;;;;;;;4.96;100.00;97973.72;10220940;29;20070;-90
2021/12/01 11:10:07;;;;;;;13.55;2.10;;;;;;;3.31;100.00;97691.28;10205037;29;20042;-90
2021/12/01 11:15:43;;;;;;;11.20;1.95;;;;;;;6.66;100.00;98216.38;10200082;28;20035;-89
2021/12/01 11:20:57;;;;;;;7.85;1.33;;;;;;;5.48;100.00;98067.53;10239188;28;20085;-90
2021/12/01 11:26:04;;;;;;;12.13;1.75;;;;;;;4.64;100.00;98149.53;10204679;28;20121;-92
2021/12/01 11:31:24;;;;;;;15.52;2.33;;;;;;;3.52;100.00;97685.69;10205218;28;20035;-88
2021/12/01 11:36:27;;;;;;;8.27;1.75;;;;;;;4.77;100.00;97927.28;10205755;28;20139;-88
2021/12/01 11:41:28;;;;;;;6.85;1.35;;;;;;;4.17;100.00;97988.28;10227358;28;20045;-87
2021/12/01 11:46:32;;;;;;;12.20;1.98;;;;;;;5.46;100.00;98037.81;10220063;28;20396;-88
2021/12/01 11:51:44;;;;;;;11.40;1.73;;;;;;;7.41;100.00;98273.03;10207404;29;20385;-87
2021/12/01 11:56:52;;;;;;;11.57;2.42;;;;;;;6.86;100.00;98188.75;10234943;29;20031;-87
2021/12/01 12:01:57;;;;;;;11.80;2.05;;;;;;;7.12;100.00;98283.31;10227193;29;20082;-92
2021/12/01 12:07:05;;;;;;;18.02;3.22;;;;;;;4.39;100.00;98071.50;10230508;29;20535;-87
2021/12/01 12:12:11;;;;;;;20.33;2.72;;;;;;;5.53;100.00;98253.03;10227702;29;20395;-88
2021/12/01 12:17:19;;;;;;;26.40;3.17;;;;;;;5.10;100.00;98142.91;10212111;29;20039;-89
2021/12/01 12:22:30;;;;;;;17.20;4.13;;;;;;;2.31;100.00;97703.34;10226759;29;20039;-92
2021/12/01 12:27:38;;;;;;;14.13;2.67;;;;;;;6.64;100.00;98309.63;10215086;29;20063;-90
2021/12/01 12:32:39;;;;;;;15.63;2.05;;;;;;;3.47;100.00;97778.19;10227466;29;20380;-91
2021/12/01 12:37:40;;;;;;;13.48;3.47;;;;;;;0.80;100.00;97392.41;10227264;29;20047;-92
2021/12/01 12:43:12;;;;;;;14.95;3.20;;;;;;;6.78;100.00;98317.94;10211399;29;20059;-88
2021/12/01 12:48:26;;;;;;;16.92;3.22;;;;;;;4.18;100.00;98019.06;10225489;28;20583;-89
2021/12/01 12:53:26;;;;;;;13.85;3.03;;;;;;;2.79;100.00;97755.22;10197939;28;20288;-91
2021/12/01 12:58:47;;;;;;;15.70;3.08;;;;;;;3.49;100.00;97790.38;10207762;28;20095;-93
2021/12/01 13:03:53;;;;;;;17.85;4.28;;;;;;;0.86;100.00;97536.72;10249028;28;20082;-91
2021/12/01 13:08:54;;;;;;;10.25;1.73;;;;;;;3.57;100.00;97965.78;10209447;28;20030;-93
2021/12/01 13:13:57;;;;;;;9.63;1.65;;;;;;;6.28;100.00;98437.59;10215220;28;20046;-90
2021/12/01 13:19:03;;;;;;;11.15;1.73;;;;;;;5.44;100.00;98475.81;10215056;28;20049;-91
2021/12/01 13:24:04;;;;;;;6.97;1.35;;;;;;;6.26;100.00;98439.81;10209311;28;20047;-91
2021/12/01 13:29:09;;;;;;;7.28;1.75;;;;;;;2.92;100.00;97827.19;10226295;28;20040;-94
2021/12/01 13:34:12;;;;;;;11.95;2.25;;;;;;;4.55;100.00;98064.03;10211138;28;20035;-89
2021/12/01 13:39:24;;;;;;;8.00;1.58;;;;;;;1.49;100.00;97638.50;10214215;28;20042;-90
2021/12/01 13:44:29;;;;;;;10.15;1.75;;;;;;;3.76;100.00;97916.97;10222539;28;20051;-89
2021/12/01 13:49:56;;;;;;;9.20;1.90;;;;;;;2.17;100.00;97792.69;10223612;28;20039;-90
2021/12/01 13:55:18;;;;;;;8.27;2.78;;;;;;;1.50;100.00;97591.34;10211801;28;20400;-87
2021/12/01 14:00:34;;;;;;;9.88;2.15;;;;;;;6.07;100.00;98363.22;10219990;28;20449;-89
2021/12/01 14:05:35;;;;;;;;;;;;;;;5.91;100.00;98354.28;10239143;28;20049;-86
2021/12/01 14:10:47;;;;;;;11.23;1.42;;;;;;;4.08;100.00;98182.50;10219520;28;19910;-87
2021/12/01 14:15:47;;;;;;;14.07;3.05;;;;;;;2.88;100.00;98021.78;10204433;28;20042;-87
2021/12/01 14:21:13;;;;;;;9.80;2.13;;;;;;;0.70;100.00;97732.78;10203374;28;20067;-87
2021/12/01 14:26:14;;;;;;;9.32;2.13;;;;;;;1.34;100.00;97716.03;10221054;28;20400;-86
2021/12/01 14:31:20;;;;;;;8.10;1.30;;;;;;;0.84;100.00;97836.00;10210403;28;20115;-88
2021/12/01 14:36:22;;;;;;;10.75;2.05;;;;;;;3.29;100.00;98209.28;10209539;28;20034;-88
2021/12/01 14:41:22;;;;;;;5.25;0.90;;;;;;;1.87;100.00;97927.28;10235330;28;20485;-87
2021/12/01 14:46:23;;;;;;;9.13;1.88;;;;;;;2.34;100.00;98091.03;10224557;28;20106;-87
2021/12/01 14:51:43;;;;;;;9.80;1.52;;;;;;;2.46;100.00;97974.81;10206348;28;20483;-87
2021/12/01 14:56:56;;;;;;;9.13;1.38;;;;;;;2.85;100.00;98090.22;10218597;28;20047;-87
2021/12/01 15:02:22;;;;;;;8.77;1.20;;;;;;;5.29;100.00;98433.00;10209264;28;20050;-86
2021/12/01 15:07:23;;;;;;;10.88;2.53;;;;;;;0.35;100.00;97735.13;10221761;28;20042;-87
2021/12/01 15:12:28;;;;;;;12.90;3.42;;;;;;;0.99;100.00;97819.78;10241492;28;20511;-88
2021/12/01 15:17:30;;;;;;;9.80;1.75;;;;;;;1.80;100.00;98038.78;10249107;28;20027;-88
2021/12/01 15:22:30;;;;;;;10.60;1.95;;;;;;;1.94;100.00;98043.69;10205106;28;20039;-86
2021/12/01 15:27:31;;;;;;;20.45;3.28;;;;;;;3.03;100.00;98299.78;10202954;28;20548;-88
2021/12/01 15:32:32;;;;;;;10.32;3.53;;;;;;;-0.61;100.00;97719.97;10195540;28;20077;-89
2021/12/01 15:37:32;;;;;;;19.38;2.95;;;;;;;0.47;100.00;97994.72;10201230;28;20467;-89
2021/12/01 15:42:33;;;;;;;17.38;4.10;;;;;;;0.80;100.00;97981.94;10220023;28;20050;-91
2021/12/01 15:47:33;;;;;;;17.17;4.30;;;;;;;1.78;100.00;98061.84;10204650;28;20392;-91
2021/12/01 15:52:37;;;;;;;12.10;1.98;;;;;;;2.85;100.00;98267.66;10232129;28;20510;-92
2021/12/01 15:57:40;;;;;;;11.75;3.25;;;;;;;2.25;100.00;98260.94;10222444;28;20142;-91
2021/12/01 16:02:40;;;;;;;21.65;3.75;;;;;;;0.75;100.00;98039.59;10233346;28;20038;-89
2021/12/01 16:07:42;;;;;;;19.73;2.85;;;;;;;1.88;100.00;98120.72;10203239;28;20034;-89
2021/12/01 16:12:42;;;;;;;14.23;3.35;;;;;;;2.59;100.00;98381.69;10215083;28;20038;-88
2021/12/01 16:17:43;;;;;;;14.55;2.30;;;;;;;4.83;100.00;98904.81;10203864;28;20118;-88
2021/12/01 16:22:44;;;;;;;15.05;3.47;;;;;;;2.79;100.00;98255.16;10203748;28;20139;-85
2021/12/01 16:27:44;;;;;;;16.25;2.30;;;;;;;4.12;100.00;98560.16;10208856;28;20039;-88
2021/12/01 16:32:50;;;;;;;16.02;2.85;;;;;;;1.58;100.00;98192.72;10241431;28;20078;-87
2021/12/01 16:37:51;;;;;;;14.23;2.38;;;;;;;0.62;100.00;98093.38;10296663;28;20031;-87
2021/12/01 16:42:52;;;;;;;12.05;1.60;;;;;;;3.52;100.00;98572.44;10246934;28;20063;-88
2021/12/01 16:47:53;;;;;;;22.05;2.78;;;;;;;2.08;100.00;98364.25;10225420;28;20039;-86
2021/12/01 16:52:54;;;;;;;19.88;2.85;;;;;;;1.29;100.00;98203.09;10209247;29;20126;-88
2021/12/01 16:57:54;;;;;;;15.35;1.77;;;;;;;2.86;100.00;98564.72;10192803;29;20027;-87
2021/12/01 17:02:55;;;;;;;9.52;1.65;;;;;;;2.01;100.00;98367.19;10192486;29;20452;-87
2021/12/01 17:12:59;;;;;;;10.85;1.90;;;;;;;3.07;100.00;98516.72;10208100;29;20038;-84
2021/12/01 17:18:00;;;;;;;18.90;2.60;;;;;;;3.41;100.00;98610.47;10223201;29;20066;-86
2021/12/01 17:23:01;;;;;;;9.57;2.67;;;;;;;2.37;100.00;98552.06;10223101;29;20062;-87
2021/12/01 17:28:02;;;;;;;10.43;1.77;;;;;;;2.33;100.00;98605.25;10191648;29;20455;-87
2021/12/01 17:33:02;;;;;;;9.88;1.75;;;;;;;2.60;100.00;98502.84;10190425;28;20031;-85
2021/12/01 17:38:04;;;;;;;9.85;1.80;;;;;;;1.25;100.00;98470.31;10206833;29;20102;-86
2021/12/01 17:43:04;;;;;;;9.68;1.63;;;;;;;3.02;100.00;98741.25;10206318;29;20121;-85
2021/12/01 17:48:08;;;;;;;13.05;1.92;;;;;;;4.31;100.00;98862.81;10190982;29;20070;-88
2021/12/01 17:53:18;;;;;;;13.48;3.08;;;;;;;2.26;100.00;98444.47;10191842;29;20260;-87
2021/12/01 17:58:19;;;;;;;17.40;2.17;;;;;;;2.66;100.00;98690.31;10207998;29;20041;-86
2021/12/01 18:03:20;;;;;;;10.75;1.83;;;;;;;2.89;100.00;98619.34;10205701;29;20035;-86
2021/12/01 18:08:20;;;;;;;15.40;2.25;;;;;;;3.84;100.00;98739.19;10221794;29;20455;-86
2021/12/01 18:13:21;;;;;;;14.13;1.67;;;;;;;3.19;100.00;98680.47;10205322;29;20110;-85
2021/12/01 18:18:21;;;;;;;15.18;2.22;;;;;;;1.70;100.00;98542.44;10221165;29;20035;-87
2021/12/01 18:23:23;;;;;;;9.77;1.63;;;;;;;4.33;100.00;98865.28;10198538;28;20041;-85
2021/12/01 18:28:23;;;;;;;14.77;2.15;;;;;;;2.76;100.00;98668.69;10224163;28;20027;-86
2021/12/01 18:33:24;;;;;;;13.23;1.40;;;;;;;1.88;100.00;98522.25;10241816;28;20502;-86
2021/12/01 18:38:25;;;;;;;4.45;1.58;;;;;;;2.84;100.00;98719.84;10208415;28;20026;-85
2021/12/01 18:43:26;;;;;;;7.05;0.95;;;;;;;1.09;100.00;98534.31;10200014;28;20408;-87
2021/12/01 18:48:27;;;;;;;16.50;2.53;;;;;;;2.67;100.00;98659.34;10201488;28;20129;-85
2021/12/01 18:53:28;;;;;;;16.00;2.35;;;;;;;1.54;100.00;98465.50;10220596;29;20086;-85
2021/12/01 18:58:29;;;;;;;14.55;1.77;;;;;;;1.15;100.00;98433.88;10236357;29;20038;-86
2021/12/01 19:03:31;;;;;;;17.83;2.05;;;;;;;1.25;100.00;98514.50;10252117;29;20494;-86
2021/12/01 19:08:36;;;;;;;10.15;1.75;;;;;;;2.92;100.00;98833.56;10251639;29;20035;-85
2021/12/01 19:13:37;;;;;;;9.27;1.67;;;;;;;0.92;100.00;98562.25;10252320;29;20456;-85
2021/12/01 19:18:37;;;;;;;10.07;1.60;;;;;;;4.70;100.00;99061.50;10219643;29;20039;-86
2021/12/01 19:23:41;;;;;;;12.88;1.77;;;;;;;2.90;100.00;98897.41;10250987;29;20404;-86
2021/12/01 19:28:41;;;;;;;10.52;1.50;;;;;;;1.87;100.00;98592.00;10251083;29;20103;-86
2021/12/01 19:33:43;;;;;;;8.88;1.77;;;;;;;2.55;100.00;98779.84;10250901;29;20440;-86
2021/12/01 19:38:44;;;;;;;17.13;4.00;;;;;;;3.05;100.00;99014.47;10255882;28;20034;-86
2021/12/01 19:43:45;;;;;;;12.93;2.17;;;;;;;1.12;100.00;98669.34;10258122;28;20059;-87
2021/12/01 19:48:46;;;;;;;13.20;3.33;;;;;;;0.16;100.00;98499.59;10235162;28;20497;-89
2021/12/01 19:53:47;;;;;;;14.32;2.50;;;;;;;0.06;100.00;98472.38;10235398;29;20027;-90
2021/12/01 19:58:49;;;;;;;12.82;2.45;;;;;;;1.56;100.00;98872.84;10245046;29;20035;-89
2021/12/01 20:03:51;;;;;;;13.07;1.73;;;;;;;0.17;100.00;98529.13;10228280;29;20098;-90
2021/12/01 20:08:53;;;;;;;9.50;2.78;;;;;;;0.71;100.00;98818.44;10259607;29;20098;-90
2021/12/01 20:13:54;;;;;;;11.20;2.17;;;;;;;-2.40;100.00;98376.28;10227438;29;20031;-90
2021/12/01 20:18:54;;;;;;;4.55;0.70;;;;;;;-0.21;100.00;98829.94;10226546;29;20079;-88
2021/12/01 20:23:57;;;;;;;4.88;0.85;;;;;;;-1.09;100.00;98507.47;10226883;29;20133;-89
2021/12/01 20:29:00;;;;;;;6.82;0.88;;;;;;;-0.72;100.00;98605.25;10257637;29;20042;-90
2021/12/01 20:34:04;;;;;;;8.32;1.35;;;;;;;1.54;100.00;99129.94;10226467;29;20066;-89
2021/12/01 20:39:07;;;;;;;8.48;1.67;;;;;;;0.47;100.00;98817.66;10241714;28;20138;-91
2021/12/01 20:44:19;;;;;;;10.38;1.52;;;;;;;-1.93;100.00;98391.69;10209261;29;20046;-91
2021/12/01 20:54:54;;;;;;;12.25;1.80;;;;;;;-0.71;100.00;98692.53;10251225;28;20067;-92
2021/12/01 21:05:08;;;;;;;14.05;1.80;;;;;;;-3.90;100.00;98240.72;10256573;29;20503;-92
2021/12/01 21:10:21;;;;;;;10.77;1.50;;;;;;;1.56;100.00;99051.84;10241399;29;20110;-92
2021/12/01 21:15:22;;;;;;;8.65;1.48;;;;;;;-1.29;100.00;98678.72;10256938;29;20047;-92
2021/12/01 21:20:25;;;;;;;8.40;1.08;;;;;;;-0.88;100.00;98741.03;10225108;29;20039;-92
2021/12/01 21:25:28;;;;;;;9.10;1.98;;;;;;;-2.32;100.00;98443.31;10241201;29;20066;-94
2021/12/01 21:30:32;;;;;;;5.07;1.00;;;;;;;-1.60;100.00;98785.03;10224867;29;20035;-91
2021/12/01 21:35:37;;;;;;;4.27;0.50;;;;;;;-1.37;100.00;98711.44;10224422;29;20035;-92
2021/12/01 21:40:40;;;;;;;2.67;0.57;;;;;;;-1.55;100.00;98843.69;10239592;28;20488;-93
2021/12/01 21:45:43;;;;;;;7.65;0.88;;;;;;;-1.29;100.00;98881.19;10224521;29;20051;-93
2021/12/01 21:50:44;;;;;;;4.60;0.88;;;;;;;-1.22;100.00;98914.34;10223674;29;20066;-92
2021/12/01 21:55:46;;;;;;;10.25;2.30;;;;;;;-3.21;100.00;98523.78;10238173;28;20031;-92
2021/12/01 22:00:49;;;;;;;6.18;1.20;;;;;;;-1.83;100.00;98685.91;10226348;28;20368;-92
2021/12/01 22:05:50;;;;;;;7.15;1.20;;;;;;;-2.29;100.00;98876.81;10225576;28;20042;-93
2021/12/01 22:10:53;;;;;;;12.57;2.50;;;;;;;-3.08;100.00;98558.66;10212926;28;20039;-91
2021/12/01 22:15:54;;;;;;;7.20;1.10;;;;;;;-4.38;100.00;98354.25;10210649;29;20035;-92
2021/12/01 22:21:10;;;;;;;9.85;2.03;;;;;;;-3.67;100.00;98511.59;10191928;28;20378;-92
2021/12/01 22:26:15;;;;;;;13.93;1.63;;;;;;;-1.75;100.00;99012.03;10197641;29;20043;-93
2021/12/01 22:31:20;;;;;;;8.63;1.90;;;;;;;-5.64;100.00;98288.81;10208143;29;20046;-93
2021/12/01 22:36:25;;;;;;;9.85;2.33;;;;;;;-2.35;100.00;98586.63;10192321;29;20050;-93
2021/12/01 22:41:30;;;;;;;6.97;1.23;;;;;;;-1.24;100.00;98815.69;10192934;29;20054;-92
2021/12/01 22:46:37;;;;;;;13.35;2.45;;;;;;;-0.72;100.00;98997.06;10206825;29;20043;-91
2021/12/01 22:51:38;;;;;;;8.13;1.10;;;;;;;-3.54;100.00;98677.41;10207454;29;20074;-90
2021/12/01 22:56:44;;;;;;;13.38;1.30;;;;;;;2.02;100.00;99288.88;10206481;29;20045;-90
2021/12/01 23:01:47;;;;;;;11.93;2.53;;;;;;;-2.81;100.00;98547.59;10192034;29;20047;-91
2021/12/01 23:06:47;;;;;;;6.75;1.30;;;;;;;-4.54;100.00;98422.75;10206320;29;20130;-91
2021/12/01 23:11:48;;;;;;;6.90;1.67;;;;;;;-1.20;100.00;98749.38;10190705;29;20142;-91
2021/12/01 23:16:48;;;;;;;7.65;1.85;;;;;;;-0.31;100.00;99119.88;10190257;29;20503;-91
2021/12/01 23:21:52;;;;;;;9.50;1.40;;;;;;;-3.41;100.00;98533.91;10190955;29;20583;-91
2021/12/01 23:32:13;;;;;;;7.50;2.33;;;;;;;-3.65;100.00;98609.84;10229362;28;20078;-91
2021/12/01 23:37:14;;;;;;;8.02;2.33;;;;;;;-1.61;100.00;98848.16;10213754;29;20039;-91
2021/12/01 23:42:15;;;;;;;8.63;1.33;;;;;;;0.75;100.00;99203.41;10197397;29;20475;-91
2021/12/01 23:47:30;;;;;;;12.90;1.70;;;;;;;-1.60;100.00;98909.16;10212600;29;20402;-91
2021/12/01 23:52:31;;;;;;;9.80;2.03;;;;;;;-1.95;100.00;98838.75;10201391;29;20031;-91
2021/12/01 23:57:32;;;;;;;7.50;0.93;;;;;;;-0.86;100.00;99003.69;10213393;29;20035;-91
